sensor_id;sensor_type;location;lat;lon;timestamp;P1;durP1;ratioP1;P2;durP2;ratioP2
15814;SDS011;8008;50.024;8.172;2023-04-01T03:00:59;4.82;;;1.20;;
15814;SDS011;8008;50.024;8.172;2023-04-01T03:03:27;3.25;;;1.00;;
15814;SDS011;8008;50.024;8.172;2023-04-01T03:05:55;3.10;;;0.80;;
15814;SDS011;8008;50.024;8.172;2023-04-01T03:08:24;3.60;;;1.00;;
15814;SDS011;8008;50.024;8.172;2023-04-01T03:10:53;4.25;;;1.20;;
15814;SDS011;8008;50.024;8.172;2023-04-01T03:13:21;3.33;;;1.10;;
15814;SDS011;8008;50.024;8.172;2023-04-01T03:15:48;3.78;;;1.10;;
15814;SDS011;8008;50.024;8.172;2023-04-01T03:18:20;3.72;;;1.00;;
15814;SDS011;8008;50.024;8.172;2023-04-01T03:20:48;5.22;;;1.38;;
15814;SDS011;8008;50.024;8.172;2023-04-01T03:23:16;2.33;;;1.10;;
15814;SDS011;8008;50.024;8.172;2023-04-01T03:25:45;6.15;;;1.20;;
15814;SDS011;8008;50.024;8.172;2023-04-01T03:28:14;3.03;;;1.48;;
15814;SDS011;8008;50.024;8.172;2023-04-01T03:30:42;4.95;;;1.30;;
15814;SDS011;8008;50.024;8.172;2023-04-01T03:33:11;4.03;;;1.40;;
15814;SDS011;8008;50.024;8.172;2023-04-01T03:35:40;4.90;;;1.45;;
15814;SDS011;8008;50.024;8.172;2023-04-01T03:38:08;2.65;;;1.40;;
15814;SDS011;8008;50.024;8.172;2023-04-01T03:40:36;5.03;;;1.60;;
15814;SDS011;8008;50.024;8.172;2023-04-01T03:43:05;3.70;;;1.38;;
15814;SDS011;8008;50.024;8.172;2023-04-01T03:45:35;3.38;;;1.30;;
15814;SDS011;8008;50.024;8.172;2023-04-01T03:48:04;3.45;;;1.30;;
15814;SDS011;8008;50.024;8.172;2023-04-01T03:50:32;2.03;;;1.20;;
15814;SDS011;8008;50.024;8.172;2023-04-01T03:53:03;5.03;;;1.60;;
15814;SDS011;8008;50.024;8.172;2023-04-01T03:55:31;5.95;;;1.55;;
15814;SDS011;8008;50.024;8.172;2023-04-01T03:58:00;4.28;;;1.30;;
15814;SDS011;8008;50.024;8.172;2023-04-01T04:00:28;4.43;;;1.60;;
15814;SDS011;8008;50.024;8.172;2023-04-01T04:02:57;6.03;;;1.98;;
15814;SDS011;8008;50.024;8.172;2023-04-01T04:05:30;2.42;;;1.42;;
15814;SDS011;8008;50.024;8.172;2023-04-01T04:07:59;4.28;;;1.50;;
15814;SDS011;8008;50.024;8.172;2023-04-01T04:10:29;4.20;;;1.42;;
15814;SDS011;8008;50.024;8.172;2023-04-01T04:12:57;2.50;;;1.55;;
15814;SDS011;8008;50.024;8.172;2023-04-01T04:15:28;4.70;;;1.30;;
15814;SDS011;8008;50.024;8.172;2023-04-01T04:17:56;3.13;;;1.30;;
15814;SDS011;8008;50.024;8.172;2023-04-01T04:20:25;3.88;;;1.30;;
15814;SDS011;8008;50.024;8.172;2023-04-01T04:22:53;3.35;;;1.40;;
15814;SDS011;8008;50.024;8.172;2023-04-01T04:25:21;6.47;;;1.40;;
15814;SDS011;8008;50.024;8.172;2023-04-01T04:27:50;4.50;;;1.50;;
15814;SDS011;8008;50.024;8.172;2023-04-01T04:30:19;3.67;;;1.30;;
15814;SDS011;8008;50.024;8.172;2023-04-01T04:32:47;3.03;;;1.10;;
15814;SDS011;8008;50.024;8.172;2023-04-01T04:35:14;3.13;;;1.02;;
15814;SDS011;8008;50.024;8.172;2023-04-01T04:37:43;2.33;;;1.15;;
15814;SDS011;8008;50.024;8.172;2023-04-01T04:40:12;3.13;;;1.30;;
15814;SDS011;8008;50.024;8.172;2023-04-01T04:42:41;2.75;;;1.33;;
15814;SDS011;8008;50.024;8.172;2023-04-01T04:45:13;4.10;;;1.42;;
15814;SDS011;8008;50.024;8.172;2023-04-01T04:47:50;3.08;;;1.45;;
15814;SDS011;8008;50.024;8.172;2023-04-01T04:50:18;2.92;;;1.42;;
15814;SDS011;8008;50.024;8.172;2023-04-01T04:52:46;4.97;;;1.70;;
15814;SDS011;8008;50.024;8.172;2023-04-01T04:55:14;2.60;;;1.48;;
15814;SDS011;8008;50.024;8.172;2023-04-01T04:57:46;3.03;;;1.35;;
15814;SDS011;8008;50.024;8.172;2023-04-01T05:00:16;5.88;;;1.42;;
15814;SDS011;8008;50.024;8.172;2023-04-01T05:02:51;6.70;;;1.80;;
15814;SDS011;8008;50.024;8.172;2023-04-01T05:05:19;6.57;;;1.30;;
15814;SDS011;8008;50.024;8.172;2023-04-01T05:07:47;2.97;;;1.20;;
15814;SDS011;8008;50.024;8.172;2023-04-01T05:10:15;4.15;;;1.38;;
15814;SDS011;8008;50.024;8.172;2023-04-01T05:12:43;4.63;;;1.23;;
15814;SDS011;8008;50.024;8.172;2023-04-01T05:15:17;2.15;;;1.00;;
15814;SDS011;8008;50.024;8.172;2023-04-01T05:17:45;2.30;;;1.52;;
15814;SDS011;8008;50.024;8.172;2023-04-01T05:20:13;4.68;;;1.20;;
15814;SDS011;8008;50.024;8.172;2023-04-01T05:22:42;2.53;;;1.20;;
15814;SDS011;8008;50.024;8.172;2023-04-01T05:25:10;2.83;;;0.80;;
15814;SDS011;8008;50.024;8.172;2023-04-01T05:27:38;2.78;;;1.10;;
15814;SDS011;8008;50.024;8.172;2023-04-01T05:30:06;3.40;;;1.00;;
15814;SDS011;8008;50.024;8.172;2023-04-01T05:32:44;1.90;;;0.80;;
15814;SDS011;8008;50.024;8.172;2023-04-01T05:35:12;1.95;;;0.73;;
15814;SDS011;8008;50.024;8.172;2023-04-01T05:37:40;1.70;;;0.93;;
15814;SDS011;8008;50.024;8.172;2023-04-01T05:40:08;2.58;;;1.00;;
15814;SDS011;8008;50.024;8.172;2023-04-01T05:42:37;2.88;;;0.80;;
15814;SDS011;8008;50.024;8.172;2023-04-01T05:45:06;1.90;;;0.95;;
15814;SDS011;8008;50.024;8.172;2023-04-01T05:48:11;1.00;;;0.60;;
15814;SDS011;8008;50.024;8.172;2023-04-01T05:50:40;2.08;;;0.95;;
15814;SDS011;8008;50.024;8.172;2023-04-01T05:53:10;2.30;;;0.73;;
15814;SDS011;8008;50.024;8.172;2023-04-01T05:55:41;2.00;;;0.85;;
15814;SDS011;8008;50.024;8.172;2023-04-01T05:58:09;1.75;;;0.82;;
15814;SDS011;8008;50.024;8.172;2023-04-01T06:00:38;2.35;;;1.00;;
15814;SDS011;8008;50.024;8.172;2023-04-01T06:03:06;1.83;;;0.75;;
15814;SDS011;8008;50.024;8.172;2023-04-01T06:05:39;2.00;;;0.80;;
15814;SDS011;8008;50.024;8.172;2023-04-01T06:08:10;1.95;;;0.70;;
15814;SDS011;8008;50.024;8.172;2023-04-01T06:10:43;1.63;;;0.90;;
15814;SDS011;8008;50.024;8.172;2023-04-01T06:13:23;3.17;;;0.93;;
15814;SDS011;8008;50.024;8.172;2023-04-01T06:16:00;2.08;;;0.90;;
15814;SDS011;8008;50.024;8.172;2023-04-01T06:18:55;2.53;;;0.90;;
15814;SDS011;8008;50.024;8.172;2023-04-01T06:25:04;1.83;;;0.77;;
15814;SDS011;8008;50.024;8.172;2023-04-01T06:27:50;1.90;;;1.05;;
15814;SDS011;8008;50.024;8.172;2023-04-01T06:30:30;2.15;;;1.00;;
15814;SDS011;8008;50.024;8.172;2023-04-01T06:36:26;1.67;;;0.75;;
15814;SDS011;8008;50.024;8.172;2023-04-01T06:42:10;3.67;;;1.08;;
15814;SDS011;8008;50.024;8.172;2023-04-01T06:44:48;1.20;;;0.85;;
15814;SDS011;8008;50.024;8.172;2023-04-01T06:47:48;2.75;;;0.90;;
15814;SDS011;8008;50.024;8.172;2023-04-01T06:50:48;0.70;;;0.65;;
15814;SDS011;8008;50.024;8.172;2023-04-01T06:53:42;1.90;;;0.77;;
15814;SDS011;8008;50.024;8.172;2023-04-01T06:56:40;1.23;;;0.73;;
15814;SDS011;8008;50.024;8.172;2023-04-01T06:59:21;1.75;;;0.80;;
15814;SDS011;8008;50.024;8.172;2023-04-01T07:01:53;1.90;;;0.98;;
15814;SDS011;8008;50.024;8.172;2023-04-01T07:04:25;0.80;;;0.80;;
15814;SDS011;8008;50.024;8.172;2023-04-01T07:06:58;0.65;;;0.60;;
15814;SDS011;8008;50.024;8.172;2023-04-01T07:09:31;0.95;;;0.90;;
15814;SDS011;8008;50.024;8.172;2023-04-01T07:12:40;1.98;;;0.52;;
15814;SDS011;8008;50.024;8.172;2023-04-01T07:15:49;1.55;;;0.75;;
15814;SDS011;8008;50.024;8.172;2023-04-01T07:18:29;0.80;;;0.77;;
15814;SDS011;8008;50.024;8.172;2023-04-01T07:21:03;1.60;;;0.60;;
15814;SDS011;8008;50.024;8.172;2023-04-01T07:23:38;0.82;;;0.50;;
15814;SDS011;8008;50.024;8.172;2023-04-01T07:26:32;0.98;;;0.43;;
15814;SDS011;8008;50.024;8.172;2023-04-01T07:29:08;0.80;;;0.68;;
15814;SDS011;8008;50.024;8.172;2023-04-01T07:34:48;1.67;;;0.60;;
15814;SDS011;8008;50.024;8.172;2023-04-01T07:37:24;0.55;;;0.55;;
15814;SDS011;8008;50.024;8.172;2023-04-01T07:39:57;2.63;;;1.45;;
15814;SDS011;8008;50.024;8.172;2023-04-01T07:42:39;1.48;;;0.70;;
15814;SDS011;8008;50.024;8.172;2023-04-01T07:45:21;1.42;;;0.70;;
15814;SDS011;8008;50.024;8.172;2023-04-01T07:47:59;1.00;;;0.60;;
15814;SDS011;8008;50.024;8.172;2023-04-01T07:50:37;0.68;;;0.68;;
15814;SDS011;8008;50.024;8.172;2023-04-01T07:53:12;0.63;;;0.63;;
15814;SDS011;8008;50.024;8.172;2023-04-01T07:55:52;1.48;;;0.50;;
15814;SDS011;8008;50.024;8.172;2023-04-01T07:58:31;0.50;;;0.50;;
15814;SDS011;8008;50.024;8.172;2023-04-01T08:01:09;1.80;;;0.50;;
15814;SDS011;8008;50.024;8.172;2023-04-01T08:03:51;0.70;;;0.68;;
15814;SDS011;8008;50.024;8.172;2023-04-01T08:06:33;1.23;;;0.75;;
15814;SDS011;8008;50.024;8.172;2023-04-01T08:09:08;0.55;;;0.55;;
15814;SDS011;8008;50.024;8.172;2023-04-01T08:12:18;0.70;;;0.70;;
15814;SDS011;8008;50.024;8.172;2023-04-01T08:15:04;0.90;;;0.57;;
15814;SDS011;8008;50.024;8.172;2023-04-01T08:18:00;0.47;;;0.40;;
15814;SDS011;8008;50.024;8.172;2023-04-01T08:20:41;0.52;;;0.50;;
15814;SDS011;8008;50.024;8.172;2023-04-01T08:23:13;0.43;;;0.40;;
15814;SDS011;8008;50.024;8.172;2023-04-01T08:25:46;1.33;;;1.00;;
15814;SDS011;8008;50.024;8.172;2023-04-01T08:28:21;1.67;;;0.82;;
15814;SDS011;8008;50.024;8.172;2023-04-01T08:30:53;0.60;;;0.60;;
15814;SDS011;8008;50.024;8.172;2023-04-01T08:33:28;1.58;;;0.90;;
15814;SDS011;8008;50.024;8.172;2023-04-01T08:36:06;2.05;;;0.88;;
15814;SDS011;8008;50.024;8.172;2023-04-01T08:38:39;0.63;;;0.60;;
15814;SDS011;8008;50.024;8.172;2023-04-01T08:41:14;0.65;;;0.60;;
15814;SDS011;8008;50.024;8.172;2023-04-01T08:44:34;1.15;;;0.22;;
15814;SDS011;8008;50.024;8.172;2023-04-01T08:47:33;2.17;;;0.60;;
15814;SDS011;8008;50.024;8.172;2023-04-01T08:50:18;1.02;;;0.63;;
15814;SDS011;8008;50.024;8.172;2023-04-01T08:53:13;0.98;;;0.70;;
15814;SDS011;8008;50.024;8.172;2023-04-01T08:55:56;1.15;;;0.80;;
15814;SDS011;8008;50.024;8.172;2023-04-01T08:58:54;0.63;;;0.63;;
15814;SDS011;8008;50.024;8.172;2023-04-01T09:01:49;0.75;;;0.75;;
15814;SDS011;8008;50.024;8.172;2023-04-01T09:04:55;1.23;;;0.87;;
15814;SDS011;8008;50.024;8.172;2023-04-01T09:07:48;1.50;;;0.88;;
15814;SDS011;8008;50.024;8.172;2023-04-01T09:14:07;1.73;;;0.80;;
15814;SDS011;8008;50.024;8.172;2023-04-01T09:17:26;2.15;;;1.00;;
15814;SDS011;8008;50.024;8.172;2023-04-01T09:20:06;0.75;;;0.70;;
15814;SDS011;8008;50.024;8.172;2023-04-01T09:22:50;2.00;;;0.75;;
15814;SDS011;8008;50.024;8.172;2023-04-01T09:25:36;1.95;;;0.60;;
15814;SDS011;8008;50.024;8.172;2023-04-01T09:28:18;1.08;;;0.52;;
15814;SDS011;8008;50.024;8.172;2023-04-01T09:34:30;1.60;;;0.60;;
15814;SDS011;8008;50.024;8.172;2023-04-01T09:37:29;0.43;;;0.43;;
15814;SDS011;8008;50.024;8.172;2023-04-01T09:40:13;0.45;;;0.40;;
15814;SDS011;8008;50.024;8.172;2023-04-01T09:42:56;0.93;;;0.43;;
15814;SDS011;8008;50.024;8.172;2023-04-01T09:45:46;1.10;;;0.60;;
15814;SDS011;8008;50.024;8.172;2023-04-01T09:48:24;1.25;;;0.68;;
15814;SDS011;8008;50.024;8.172;2023-04-01T09:51:17;3.25;;;0.55;;
15814;SDS011;8008;50.024;8.172;2023-04-01T09:53:57;0.60;;;0.60;;
15814;SDS011;8008;50.024;8.172;2023-04-01T09:56:46;1.85;;;0.90;;
15814;SDS011;8008;50.024;8.172;2023-04-01T10:03:13;2.28;;;0.50;;
15814;SDS011;8008;50.024;8.172;2023-04-01T10:21:43;1.58;;;0.88;;
15814;SDS011;8008;50.024;8.172;2023-04-01T10:24:32;0.55;;;0.47;;
15814;SDS011;8008;50.024;8.172;2023-04-01T10:27:25;1.83;;;0.40;;
15814;SDS011;8008;50.024;8.172;2023-04-01T10:30:32;1.02;;;0.93;;
15814;SDS011;8008;50.024;8.172;2023-04-01T10:39:35;0.68;;;0.68;;
15814;SDS011;8008;50.024;8.172;2023-04-01T10:48:54;1.02;;;0.63;;
15814;SDS011;8008;50.024;8.172;2023-04-01T11:02:27;0.60;;;0.60;;
15814;SDS011;8008;50.024;8.172;2023-04-01T11:05:51;0.80;;;0.80;;
15814;SDS011;8008;50.024;8.172;2023-04-01T11:12:07;0.90;;;0.60;;
15814;SDS011;8008;50.024;8.172;2023-04-01T11:14:59;0.35;;;0.35;;
15814;SDS011;8008;50.024;8.172;2023-04-01T11:17:53;0.40;;;0.40;;
15814;SDS011;8008;50.024;8.172;2023-04-01T11:23:46;0.32;;;0.32;;
15814;SDS011;8008;50.024;8.172;2023-04-01T11:26:39;0.40;;;0.40;;
15814;SDS011;8008;50.024;8.172;2023-04-01T11:29:48;0.73;;;0.70;;
15814;SDS011;8008;50.024;8.172;2023-04-01T11:32:34;0.38;;;0.38;;
15814;SDS011;8008;50.024;8.172;2023-04-01T11:35:20;0.40;;;0.40;;
15814;SDS011;8008;50.024;8.172;2023-04-01T11:38:04;0.70;;;0.70;;
15814;SDS011;8008;50.024;8.172;2023-04-01T11:40:45;1.27;;;0.88;;
15814;SDS011;8008;50.024;8.172;2023-04-01T11:43:43;2.13;;;1.77;;
15814;SDS011;8008;50.024;8.172;2023-04-01T11:46:37;1.63;;;0.80;;
15814;SDS011;8008;50.024;8.172;2023-04-01T11:49:17;1.33;;;1.15;;
15814;SDS011;8008;50.024;8.172;2023-04-01T11:52:19;2.83;;;1.00;;
15814;SDS011;8008;50.024;8.172;2023-04-01T11:54:57;1.98;;;0.90;;
15814;SDS011;8008;50.024;8.172;2023-04-01T11:57:43;7.32;;;1.20;;
15814;SDS011;8008;50.024;8.172;2023-04-01T12:00:38;2.75;;;1.10;;
15814;SDS011;8008;50.024;8.172;2023-04-01T12:03:32;1.80;;;0.73;;
15814;SDS011;8008;50.024;8.172;2023-04-01T12:06:22;1.50;;;1.13;;
15814;SDS011;8008;50.024;8.172;2023-04-01T12:08:59;1.30;;;0.70;;
15814;SDS011;8008;50.024;8.172;2023-04-01T12:11:33;1.50;;;0.98;;
15814;SDS011;8008;50.024;8.172;2023-04-01T12:14:08;0.75;;;0.70;;
15814;SDS011;8008;50.024;8.172;2023-04-01T12:16:51;2.20;;;1.33;;
15814;SDS011;8008;50.024;8.172;2023-04-01T12:19:28;1.23;;;0.68;;
15814;SDS011;8008;50.024;8.172;2023-04-01T12:22:07;0.63;;;0.63;;
15814;SDS011;8008;50.024;8.172;2023-04-01T12:24:49;1.10;;;1.00;;
15814;SDS011;8008;50.024;8.172;2023-04-01T12:30:26;2.42;;;0.80;;
15814;SDS011;8008;50.024;8.172;2023-04-01T12:33:13;2.35;;;1.40;;
15814;SDS011;8008;50.024;8.172;2023-04-01T12:36:00;0.93;;;0.80;;
15814;SDS011;8008;50.024;8.172;2023-04-01T12:38:40;1.85;;;0.90;;
15814;SDS011;8008;50.024;8.172;2023-04-01T12:41:21;2.58;;;1.08;;
15814;SDS011;8008;50.024;8.172;2023-04-01T12:44:03;3.22;;;0.70;;
15814;SDS011;8008;50.024;8.172;2023-04-01T12:46:52;0.90;;;0.85;;
15814;SDS011;8008;50.024;8.172;2023-04-01T12:49:50;1.50;;;0.70;;
15814;SDS011;8008;50.024;8.172;2023-04-01T12:52:30;3.30;;;1.27;;
15814;SDS011;8008;50.024;8.172;2023-04-01T12:58:06;2.00;;;1.30;;
15814;SDS011;8008;50.024;8.172;2023-04-01T13:03:51;2.88;;;1.13;;
15814;SDS011;8008;50.024;8.172;2023-04-01T13:06:49;1.65;;;0.98;;
15814;SDS011;8008;50.024;8.172;2023-04-01T13:09:31;2.13;;;1.00;;
15814;SDS011;8008;50.024;8.172;2023-04-01T13:12:14;1.70;;;0.68;;
15814;SDS011;8008;50.024;8.172;2023-04-01T13:15:03;3.58;;;1.50;;
15814;SDS011;8008;50.024;8.172;2023-04-01T13:17:43;0.80;;;0.80;;
15814;SDS011;8008;50.024;8.172;2023-04-01T13:20:20;1.65;;;0.85;;
15814;SDS011;8008;50.024;8.172;2023-04-01T13:22:57;1.10;;;0.85;;
15814;SDS011;8008;50.024;8.172;2023-04-01T13:25:36;1.70;;;1.23;;
15814;SDS011;8008;50.024;8.172;2023-04-01T13:28:12;2.25;;;0.70;;
15814;SDS011;8008;50.024;8.172;2023-04-01T13:30:47;1.13;;;0.68;;
15814;SDS011;8008;50.024;8.172;2023-04-01T13:33:24;1.65;;;0.50;;
15814;SDS011;8008;50.024;8.172;2023-04-01T13:36:02;0.60;;;0.60;;
15814;SDS011;8008;50.024;8.172;2023-04-01T13:38:45;0.60;;;0.60;;
15814;SDS011;8008;50.024;8.172;2023-04-01T13:41:40;0.52;;;0.52;;
15814;SDS011;8008;50.024;8.172;2023-04-01T13:44:19;0.63;;;0.50;;
15814;SDS011;8008;50.024;8.172;2023-04-01T13:46:57;0.55;;;0.47;;
15814;SDS011;8008;50.024;8.172;2023-04-01T13:49:42;0.98;;;0.73;;
15814;SDS011;8008;50.024;8.172;2023-04-01T13:52:37;1.60;;;0.70;;
15814;SDS011;8008;50.024;8.172;2023-04-01T13:55:20;1.75;;;0.60;;
15814;SDS011;8008;50.024;8.172;2023-04-01T13:58:04;1.20;;;1.10;;
15814;SDS011;8008;50.024;8.172;2023-04-01T14:00:46;1.10;;;1.00;;
15814;SDS011;8008;50.024;8.172;2023-04-01T14:03:37;2.60;;;1.77;;
15814;SDS011;8008;50.024;8.172;2023-04-01T14:06:19;1.73;;;1.00;;
15814;SDS011;8008;50.024;8.172;2023-04-01T14:09:06;1.63;;;0.80;;
15814;SDS011;8008;50.024;8.172;2023-04-01T14:11:45;0.93;;;0.93;;
15814;SDS011;8008;50.024;8.172;2023-04-01T14:14:24;1.05;;;0.60;;
15814;SDS011;8008;50.024;8.172;2023-04-01T14:17:07;0.80;;;0.77;;
15814;SDS011;8008;50.024;8.172;2023-04-01T14:19:56;3.05;;;0.80;;
15814;SDS011;8008;50.024;8.172;2023-04-01T14:22:42;2.67;;;0.90;;
15814;SDS011;8008;50.024;8.172;2023-04-01T14:25:25;2.08;;;0.55;;
15814;SDS011;8008;50.024;8.172;2023-04-01T14:28:09;1.13;;;0.63;;
15814;SDS011;8008;50.024;8.172;2023-04-01T14:30:52;0.60;;;0.60;;
15814;SDS011;8008;50.024;8.172;2023-04-01T14:33:37;2.03;;;0.50;;
15814;SDS011;8008;50.024;8.172;2023-04-01T14:36:23;0.45;;;0.43;;
15814;SDS011;8008;50.024;8.172;2023-04-01T14:39:00;1.85;;;0.60;;
15814;SDS011;8008;50.024;8.172;2023-04-01T14:41:44;0.75;;;0.50;;
15814;SDS011;8008;50.024;8.172;2023-04-01T14:47:13;0.50;;;0.50;;
15814;SDS011;8008;50.024;8.172;2023-04-01T14:49:52;0.93;;;0.60;;
15814;SDS011;8008;50.024;8.172;2023-04-01T14:52:30;0.60;;;0.60;;
15814;SDS011;8008;50.024;8.172;2023-04-01T14:55:01;0.45;;;0.45;;
15814;SDS011;8008;50.024;8.172;2023-04-01T14:57:39;1.20;;;0.70;;
15814;SDS011;8008;50.024;8.172;2023-04-01T15:00:12;0.50;;;0.50;;
15814;SDS011;8008;50.024;8.172;2023-04-01T15:02:45;0.40;;;0.40;;
15814;SDS011;8008;50.024;8.172;2023-04-01T15:05:27;0.77;;;0.40;;
15814;SDS011;8008;50.024;8.172;2023-04-01T15:08:02;0.50;;;0.50;;
15814;SDS011;8008;50.024;8.172;2023-04-01T15:10:40;0.68;;;0.50;;
15814;SDS011;8008;50.024;8.172;2023-04-01T15:16:46;0.43;;;0.43;;
15814;SDS011;8008;50.024;8.172;2023-04-01T15:19:27;0.40;;;0.40;;
15814;SDS011;8008;50.024;8.172;2023-04-01T15:25:13;0.90;;;0.90;;
15814;SDS011;8008;50.024;8.172;2023-04-01T15:27:51;2.05;;;1.40;;
15814;SDS011;8008;50.024;8.172;2023-04-01T15:30:30;1.52;;;1.42;;
15814;SDS011;8008;50.024;8.172;2023-04-01T15:33:04;1.60;;;1.50;;
15814;SDS011;8008;50.024;8.172;2023-04-01T15:35:43;1.23;;;1.13;;
15814;SDS011;8008;50.024;8.172;2023-04-01T15:38:18;1.50;;;1.40;;
15814;SDS011;8008;50.024;8.172;2023-04-01T15:41:01;1.52;;;1.20;;
15814;SDS011;8008;50.024;8.172;2023-04-01T15:43:37;0.90;;;0.90;;
15814;SDS011;8008;50.024;8.172;2023-04-01T15:46:14;1.80;;;1.60;;
15814;SDS011;8008;50.024;8.172;2023-04-01T15:49:03;1.40;;;1.30;;
15814;SDS011;8008;50.024;8.172;2023-04-01T15:51:44;1.70;;;1.00;;
15814;SDS011;8008;50.024;8.172;2023-04-01T15:57:25;1.00;;;0.80;;
15814;SDS011;8008;50.024;8.172;2023-04-01T16:00:03;0.80;;;0.80;;
15814;SDS011;8008;50.024;8.172;2023-04-01T16:02:42;4.43;;;1.20;;
15814;SDS011;8008;50.024;8.172;2023-04-01T16:05:21;1.30;;;1.20;;
15814;SDS011;8008;50.024;8.172;2023-04-01T16:08:04;2.45;;;1.50;;
15814;SDS011;8008;50.024;8.172;2023-04-01T16:10:49;1.45;;;1.35;;
15814;SDS011;8008;50.024;8.172;2023-04-01T16:13:32;1.40;;;1.30;;
15814;SDS011;8008;50.024;8.172;2023-04-01T16:16:14;0.90;;;0.90;;
15814;SDS011;8008;50.024;8.172;2023-04-01T16:18:55;0.80;;;0.80;;
15814;SDS011;8008;50.024;8.172;2023-04-01T16:21:37;1.23;;;1.00;;
15814;SDS011;8008;50.024;8.172;2023-04-01T16:24:14;1.58;;;1.42;;
15814;SDS011;8008;50.024;8.172;2023-04-01T16:26:48;2.15;;;1.08;;
15814;SDS011;8008;50.024;8.172;2023-04-01T16:29:24;0.90;;;0.90;;
15814;SDS011;8008;50.024;8.172;2023-04-01T16:31:59;1.17;;;1.08;;
15814;SDS011;8008;50.024;8.172;2023-04-01T16:34:47;1.10;;;1.00;;
15814;SDS011;8008;50.024;8.172;2023-04-01T16:37:28;3.88;;;2.15;;
15814;SDS011;8008;50.024;8.172;2023-04-01T16:40:11;2.22;;;1.50;;
15814;SDS011;8008;50.024;8.172;2023-04-01T16:42:48;2.35;;;1.10;;
15814;SDS011;8008;50.024;8.172;2023-04-01T16:45:22;4.18;;;1.70;;
15814;SDS011;8008;50.024;8.172;2023-04-01T16:47:58;4.05;;;2.58;;
15814;SDS011;8008;50.024;8.172;2023-04-01T16:50:39;1.48;;;1.20;;
15814;SDS011;8008;50.024;8.172;2023-04-01T16:53:16;2.75;;;2.10;;
15814;SDS011;8008;50.024;8.172;2023-04-01T16:55:49;3.03;;;2.30;;
15814;SDS011;8008;50.024;8.172;2023-04-01T16:58:21;3.35;;;2.70;;
15814;SDS011;8008;50.024;8.172;2023-04-01T17:00:53;4.30;;;2.53;;
15814;SDS011;8008;50.024;8.172;2023-04-01T17:03:27;2.55;;;1.80;;
15814;SDS011;8008;50.024;8.172;2023-04-01T17:06:03;1.13;;;1.00;;
15814;SDS011;8008;50.024;8.172;2023-04-01T17:08:50;2.33;;;1.45;;
15814;SDS011;8008;50.024;8.172;2023-04-01T17:11:31;1.77;;;1.30;;
15814;SDS011;8008;50.024;8.172;2023-04-01T17:14:09;2.35;;;1.00;;
15814;SDS011;8008;50.024;8.172;2023-04-01T17:16:52;1.15;;;1.08;;
15814;SDS011;8008;50.024;8.172;2023-04-01T17:19:46;0.73;;;0.73;;
15814;SDS011;8008;50.024;8.172;2023-04-01T17:22:23;1.08;;;1.00;;
15814;SDS011;8008;50.024;8.172;2023-04-01T17:25:02;2.33;;;1.88;;
15814;SDS011;8008;50.024;8.172;2023-04-01T17:27:46;1.90;;;1.65;;
15814;SDS011;8008;50.024;8.172;2023-04-01T17:30:22;1.10;;;1.00;;
15814;SDS011;8008;50.024;8.172;2023-04-01T17:33:02;1.15;;;1.00;;
15814;SDS011;8008;50.024;8.172;2023-04-01T17:35:48;1.00;;;1.00;;
15814;SDS011;8008;50.024;8.172;2023-04-01T17:38:29;1.08;;;0.75;;
15814;SDS011;8008;50.024;8.172;2023-04-01T17:41:17;2.42;;;1.20;;
15814;SDS011;8008;50.024;8.172;2023-04-01T17:43:58;2.30;;;1.50;;
15814;SDS011;8008;50.024;8.172;2023-04-01T17:46:42;2.45;;;1.58;;
15814;SDS011;8008;50.024;8.172;2023-04-01T17:49:26;1.90;;;1.17;;
15814;SDS011;8008;50.024;8.172;2023-04-01T17:51:59;1.33;;;0.98;;
15814;SDS011;8008;50.024;8.172;2023-04-01T17:54:36;1.30;;;1.20;;
15814;SDS011;8008;50.024;8.172;2023-04-01T17:57:24;2.42;;;1.23;;
15814;SDS011;8008;50.024;8.172;2023-04-01T18:00:16;1.10;;;1.00;;
15814;SDS011;8008;50.024;8.172;2023-04-01T18:02:54;2.05;;;1.20;;
15814;SDS011;8008;50.024;8.172;2023-04-01T18:05:30;4.13;;;2.53;;
15814;SDS011;8008;50.024;8.172;2023-04-01T18:08:11;3.90;;;3.42;;
15814;SDS011;8008;50.024;8.172;2023-04-01T18:10:48;2.08;;;1.83;;
15814;SDS011;8008;50.024;8.172;2023-04-01T18:13:36;1.83;;;1.48;;
15814;SDS011;8008;50.024;8.172;2023-04-01T18:16:39;1.55;;;1.30;;
15814;SDS011;8008;50.024;8.172;2023-04-01T18:19:18;3.03;;;2.10;;
15814;SDS011;8008;50.024;8.172;2023-04-01T18:21:56;3.03;;;1.70;;
15814;SDS011;8008;50.024;8.172;2023-04-01T18:24:41;3.20;;;2.17;;
15814;SDS011;8008;50.024;8.172;2023-04-01T18:27:15;4.10;;;2.05;;
15814;SDS011;8008;50.024;8.172;2023-04-01T18:29:46;3.25;;;1.98;;
15814;SDS011;8008;50.024;8.172;2023-04-01T18:32:24;3.08;;;1.70;;
15814;SDS011;8008;50.024;8.172;2023-04-01T18:35:00;3.85;;;1.95;;
15814;SDS011;8008;50.024;8.172;2023-04-01T18:37:38;1.83;;;1.50;;
15814;SDS011;8008;50.024;8.172;2023-04-01T18:40:15;2.20;;;1.80;;
15814;SDS011;8008;50.024;8.172;2023-04-01T18:42:50;3.95;;;1.80;;
15814;SDS011;8008;50.024;8.172;2023-04-01T18:45:26;1.35;;;1.00;;
15814;SDS011;8008;50.024;8.172;2023-04-01T18:47:59;2.30;;;2.10;;
15814;SDS011;8008;50.024;8.172;2023-04-01T18:50:36;1.30;;;1.20;;
15814;SDS011;8008;50.024;8.172;2023-04-01T18:53:14;1.30;;;1.20;;
15814;SDS011;8008;50.024;8.172;2023-04-01T18:55:50;1.42;;;1.27;;
15814;SDS011;8008;50.024;8.172;2023-04-01T18:58:32;2.40;;;1.70;;
15814;SDS011;8008;50.024;8.172;2023-04-01T19:01:08;2.28;;;1.70;;
15814;SDS011;8008;50.024;8.172;2023-04-01T19:03:45;2.33;;;1.80;;
15814;SDS011;8008;50.024;8.172;2023-04-01T19:06:23;1.77;;;1.30;;
15814;SDS011;8008;50.024;8.172;2023-04-01T19:08:56;1.30;;;1.20;;
15814;SDS011;8008;50.024;8.172;2023-04-01T19:11:40;2.13;;;1.08;;
15814;SDS011;8008;50.024;8.172;2023-04-01T19:14:18;1.90;;;1.30;;
15814;SDS011;8008;50.024;8.172;2023-04-01T19:16:51;1.58;;;1.17;;
15814;SDS011;8008;50.024;8.172;2023-04-01T19:19:34;2.95;;;1.60;;
15814;SDS011;8008;50.024;8.172;2023-04-01T19:22:20;1.48;;;1.38;;
15814;SDS011;8008;50.024;8.172;2023-04-01T19:25:15;1.50;;;1.40;;
15814;SDS011;8008;50.024;8.172;2023-04-01T19:27:53;1.42;;;1.33;;
15814;SDS011;8008;50.024;8.172;2023-04-01T19:30:37;1.67;;;1.15;;
15814;SDS011;8008;50.024;8.172;2023-04-01T19:33:18;2.20;;;1.40;;
15814;SDS011;8008;50.024;8.172;2023-04-01T19:36:00;1.52;;;1.00;;
15814;SDS011;8008;50.024;8.172;2023-04-01T19:38:37;1.10;;;0.98;;
15814;SDS011;8008;50.024;8.172;2023-04-01T19:41:12;1.00;;;0.90;;
15814;SDS011;8008;50.024;8.172;2023-04-01T19:43:53;2.63;;;1.70;;
15814;SDS011;8008;50.024;8.172;2023-04-01T19:46:28;1.75;;;1.60;;
15814;SDS011;8008;50.024;8.172;2023-04-01T19:49:03;2.08;;;1.60;;
15814;SDS011;8008;50.024;8.172;2023-04-01T19:51:43;4.10;;;2.95;;
15814;SDS011;8008;50.024;8.172;2023-04-01T19:54:19;2.13;;;1.90;;
15814;SDS011;8008;50.024;8.172;2023-04-01T19:56:57;1.92;;;1.70;;
15814;SDS011;8008;50.024;8.172;2023-04-01T19:59:34;1.92;;;1.40;;
15814;SDS011;8008;50.024;8.172;2023-04-01T20:02:29;3.28;;;1.65;;
15814;SDS011;8008;50.024;8.172;2023-04-01T20:05:04;1.20;;;1.05;;
15814;SDS011;8008;50.024;8.172;2023-04-01T20:07:54;1.02;;;1.00;;
15814;SDS011;8008;50.024;8.172;2023-04-01T20:10:29;1.27;;;0.95;;
15814;SDS011;8008;50.024;8.172;2023-04-01T20:13:04;1.00;;;1.00;;
15814;SDS011;8008;50.024;8.172;2023-04-01T20:15:37;1.65;;;1.20;;
15814;SDS011;8008;50.024;8.172;2023-04-01T20:18:12;1.23;;;1.13;;
15814;SDS011;8008;50.024;8.172;2023-04-01T20:20:51;0.93;;;0.90;;
15814;SDS011;8008;50.024;8.172;2023-04-01T20:23:29;1.20;;;1.10;;
15814;SDS011;8008;50.024;8.172;2023-04-01T20:26:10;1.23;;;1.13;;
15814;SDS011;8008;50.024;8.172;2023-04-01T20:28:44;1.10;;;1.00;;
15814;SDS011;8008;50.024;8.172;2023-04-01T20:31:18;1.20;;;1.10;;
15814;SDS011;8008;50.024;8.172;2023-04-01T20:36:56;2.78;;;2.00;;
15814;SDS011;8008;50.024;8.172;2023-04-01T20:39:41;1.92;;;1.70;;
15814;SDS011;8008;50.024;8.172;2023-04-01T20:42:26;2.00;;;1.55;;
15814;SDS011;8008;50.024;8.172;2023-04-01T20:45:14;1.60;;;1.50;;
15814;SDS011;8008;50.024;8.172;2023-04-01T20:47:56;1.33;;;1.23;;
15814;SDS011;8008;50.024;8.172;2023-04-01T20:50:34;0.98;;;0.98;;